createdAt,value
2017-08-24T00:00:45.938Z,32.97
2017-08-24T00:03:12.582Z,29.47
2017-08-24T00:05:39.221Z,35.43
2017-08-24T00:08:05.861Z,32.13
2017-08-24T00:10:32.482Z,35.03
2017-08-24T00:12:59.128Z,32.87
2017-08-24T00:15:25.767Z,36.83
2017-08-24T00:17:52.396Z,40.40
2017-08-24T00:20:19.023Z,37.43
2017-08-24T00:22:45.642Z,35.77
2017-08-24T00:25:12.266Z,37.93
2017-08-24T00:27:38.894Z,32.97
2017-08-24T00:30:05.565Z,30.40
2017-08-24T00:32:32.168Z,30.07
2017-08-24T00:34:58.811Z,38.63
2017-08-24T00:37:25.450Z,37.23
2017-08-24T00:39:52.056Z,35.57
2017-08-24T00:42:19.077Z,30.90
2017-08-24T00:44:45.746Z,39.57
2017-08-24T00:47:12.354Z,37.97
2017-08-24T00:49:38.980Z,39.10
2017-08-24T00:52:05.624Z,36.57
2017-08-24T00:54:32.255Z,34.20
2017-08-24T00:56:58.906Z,38.00
2017-08-24T00:59:25.531Z,35.03
2017-08-24T01:01:52.181Z,31.97
2017-08-24T01:04:18.816Z,39.20
2017-08-24T01:06:45.435Z,38.40
2017-08-24T01:09:12.074Z,40.80
2017-08-24T01:11:38.705Z,35.53
2017-08-24T01:14:05.355Z,36.40
2017-08-24T01:16:31.987Z,38.63
2017-08-24T01:18:58.637Z,31.77
2017-08-24T01:21:25.266Z,42.80
2017-08-24T01:23:51.873Z,41.43
2017-08-24T01:26:18.530Z,34.80
2017-08-24T01:28:45.146Z,32.03
2017-08-24T01:31:11.766Z,32.33
2017-08-24T01:33:38.427Z,34.47
2017-08-24T01:36:05.051Z,43.93
2017-08-24T01:38:31.682Z,35.53
2017-08-24T01:40:58.327Z,36.20
2017-08-24T01:43:24.952Z,39.67
2017-08-24T01:45:51.569Z,32.73
2017-08-24T01:48:18.214Z,32.63
2017-08-24T01:50:44.866Z,34.10
2017-08-24T01:53:11.485Z,34.33
2017-08-24T01:55:38.317Z,30.37
2017-08-24T01:58:05.126Z,20.47
2017-08-24T02:00:31.762Z,10.80
2017-08-24T02:02:58.392Z,10.57
2017-08-24T02:05:25.040Z,11.70
2017-08-24T02:07:51.671Z,12.13
2017-08-24T02:10:18.300Z,14.80
2017-08-24T02:12:44.924Z,9.80
2017-08-24T02:15:11.579Z,11.90
2017-08-24T02:17:38.199Z,8.97
2017-08-24T02:20:04.812Z,12.60
2017-08-24T02:22:31.455Z,7.10
2017-08-24T02:24:58.080Z,12.67
2017-08-24T02:27:24.738Z,13.67
2017-08-24T02:29:51.361Z,15.83
2017-08-24T02:32:17.967Z,12.60
2017-08-24T02:34:44.617Z,15.33
2017-08-24T02:37:11.244Z,19.20
2017-08-24T02:39:37.900Z,12.50
2017-08-24T02:42:04.514Z,32.47
2017-08-24T02:44:31.177Z,11.80
2017-08-24T02:46:57.788Z,17.23
2017-08-24T02:49:24.408Z,22.57
2017-08-24T02:51:51.049Z,13.60
2017-08-24T02:54:17.679Z,16.60
2017-08-24T02:56:44.307Z,12.90
2017-08-24T02:59:10.966Z,18.80
2017-08-24T03:01:37.595Z,14.87
2017-08-24T03:04:04.230Z,11.87
2017-08-24T03:06:30.859Z,14.07
2017-08-24T03:08:57.490Z,13.33
2017-08-24T03:11:24.113Z,11.73
2017-08-24T03:13:50.770Z,15.27
2017-08-24T03:16:17.370Z,26.20
2017-08-24T03:18:43.990Z,17.67
2017-08-24T03:21:10.639Z,16.60
2017-08-24T03:23:37.248Z,17.67
2017-08-24T03:26:03.881Z,19.03
2017-08-24T03:28:30.511Z,17.07
2017-08-24T03:30:57.158Z,17.30
2017-08-24T03:33:23.791Z,25.97
2017-08-24T03:35:50.418Z,21.30
2017-08-24T03:38:17.058Z,21.97
2017-08-24T03:40:43.689Z,17.10
2017-08-24T03:43:10.355Z,16.63
2017-08-24T03:45:36.990Z,13.30
2017-08-24T03:48:03.607Z,15.60
2017-08-24T03:50:30.247Z,21.00
2017-08-24T03:52:56.867Z,20.53
2017-08-24T03:55:23.513Z,20.83
2017-08-24T03:57:50.127Z,30.50
2017-08-24T04:00:16.759Z,20.57
2017-08-24T04:02:43.382Z,23.27
2017-08-24T04:05:10.000Z,15.90
2017-08-24T04:07:36.625Z,22.47
2017-08-24T04:10:03.257Z,15.33
2017-08-24T04:12:29.891Z,20.30
2017-08-24T04:14:56.515Z,28.03
2017-08-24T04:17:23.183Z,18.60
2017-08-24T04:19:49.793Z,18.53
2017-08-24T04:22:16.422Z,25.30
2017-08-24T04:24:43.064Z,28.23
2017-08-24T04:27:09.690Z,26.00
2017-08-24T04:29:36.317Z,23.80
2017-08-24T04:32:02.942Z,23.60
2017-08-24T04:34:29.567Z,28.77
2017-08-24T04:36:56.184Z,14.80
2017-08-24T04:39:22.846Z,21.13
2017-08-24T04:41:49.475Z,15.20
2017-08-24T04:44:16.110Z,21.90
2017-08-24T04:46:42.744Z,18.43
2017-08-24T04:49:09.388Z,15.50
2017-08-24T04:51:36.030Z,22.87
2017-08-24T04:54:02.659Z,19.20
2017-08-24T04:56:29.303Z,18.67
2017-08-24T04:58:55.913Z,16.93
2017-08-24T05:01:22.558Z,13.50
2017-08-24T05:03:49.187Z,15.80
2017-08-24T05:06:15.818Z,17.03
2017-08-24T05:08:42.437Z,17.23
2017-08-24T05:11:09.080Z,21.27
2017-08-24T05:13:35.726Z,13.77
2017-08-24T05:16:02.343Z,17.30
2017-08-24T05:18:28.975Z,22.70
2017-08-24T05:20:55.594Z,14.07
2017-08-24T05:23:22.221Z,17.07
2017-08-24T05:25:48.828Z,17.23
2017-08-24T05:28:15.470Z,13.77
2017-08-24T05:30:42.101Z,17.40
2017-08-24T05:33:08.727Z,17.10
2017-08-24T05:35:35.372Z,18.57
2017-08-24T05:38:02.002Z,21.73
2017-08-24T05:40:28.626Z,17.93
2017-08-24T05:42:55.254Z,18.00
2017-08-24T05:45:21.891Z,15.27
2017-08-24T05:47:48.517Z,17.27
2017-08-24T05:50:15.143Z,21.17
2017-08-24T05:52:41.794Z,14.43
2017-08-24T05:55:08.414Z,22.33
2017-08-24T05:57:35.050Z,24.83
2017-08-24T06:00:01.651Z,17.93
2017-08-24T06:02:28.277Z,16.83
2017-08-24T06:04:54.919Z,17.00
2017-08-24T06:07:21.543Z,17.13
2017-08-24T06:09:48.193Z,14.00
2017-08-24T06:12:14.909Z,15.80
2017-08-24T06:14:41.599Z,17.17
2017-08-24T06:17:08.236Z,12.90
2017-08-24T06:19:34.847Z,17.53
2017-08-24T06:22:01.499Z,15.33
2017-08-24T06:24:28.225Z,14.77
2017-08-24T06:26:54.843Z,21.13
2017-08-24T06:29:21.508Z,18.63
2017-08-24T06:31:48.130Z,18.30
2017-08-24T06:34:14.761Z,14.87
2017-08-24T06:36:41.406Z,29.30
2017-08-24T06:39:08.030Z,18.50
2017-08-24T06:41:34.666Z,20.07
2017-08-24T06:44:01.282Z,21.57
2017-08-24T06:46:27.963Z,22.60
2017-08-24T06:48:54.630Z,23.93
2017-08-24T06:51:21.267Z,20.07
2017-08-24T06:53:47.911Z,17.57
2017-08-24T06:56:14.550Z,16.37
2017-08-24T06:58:41.199Z,17.90
2017-08-24T07:01:07.838Z,17.60
2017-08-24T07:03:34.459Z,20.57
2017-08-24T07:06:01.091Z,20.40
2017-08-24T07:08:27.739Z,13.90
2017-08-24T07:10:54.390Z,19.07
2017-08-24T07:13:20.994Z,19.77
2017-08-24T07:15:47.638Z,14.60
2017-08-24T07:18:14.256Z,18.90
2017-08-24T07:20:40.898Z,19.90
2017-08-24T07:23:07.504Z,19.33
2017-08-24T07:25:34.156Z,19.50
2017-08-24T07:28:00.795Z,18.73
2017-08-24T07:30:27.910Z,20.00
2017-08-24T07:32:54.548Z,33.47
2017-08-24T07:35:21.181Z,22.00
2017-08-24T07:37:47.817Z,24.13
2017-08-24T07:40:14.476Z,19.03
2017-08-24T07:42:41.127Z,17.73
2017-08-24T07:45:07.821Z,32.30
2017-08-24T07:47:34.422Z,24.63
2017-08-24T07:50:01.075Z,32.40
2017-08-24T07:52:28.563Z,20.17
2017-08-24T07:54:55.775Z,25.83
2017-08-24T07:57:22.427Z,18.77
2017-08-24T07:59:49.107Z,29.20
2017-08-24T08:02:15.754Z,23.50
2017-08-24T08:04:42.445Z,20.87
2017-08-24T08:07:09.073Z,21.50
2017-08-24T08:09:35.700Z,27.70
2017-08-24T08:12:02.337Z,17.17
2017-08-24T08:14:29.006Z,28.67
2017-08-24T08:16:55.643Z,26.30
2017-08-24T08:19:22.282Z,19.47
2017-08-24T08:21:48.920Z,20.50
2017-08-24T08:24:15.586Z,21.50
2017-08-24T08:26:42.223Z,21.30
2017-08-24T08:29:08.879Z,25.23
2017-08-24T08:31:35.499Z,22.00
2017-08-24T08:34:02.127Z,19.57
2017-08-24T08:36:28.762Z,27.80
2017-08-24T08:38:55.399Z,19.53
2017-08-24T08:41:22.026Z,23.47
2017-08-24T08:43:48.655Z,18.30
2017-08-24T08:46:15.293Z,19.37
2017-08-24T08:48:41.958Z,18.70
2017-08-24T08:51:08.582Z,23.37
2017-08-24T08:53:35.216Z,26.57
2017-08-24T08:56:01.837Z,19.50
2017-08-24T08:58:28.456Z,25.27
2017-08-24T09:00:55.108Z,25.03
2017-08-24T09:03:21.721Z,21.10
2017-08-24T09:05:48.375Z,20.77
2017-08-24T09:08:14.981Z,26.03
2017-08-24T09:10:41.614Z,24.53
2017-08-24T09:13:08.284Z,23.73
2017-08-24T09:15:34.901Z,22.80
2017-08-24T09:18:01.539Z,21.73
2017-08-24T09:20:28.246Z,19.23
2017-08-24T09:22:54.878Z,22.53
2017-08-24T09:25:21.512Z,17.53
2017-08-24T09:27:48.147Z,19.07
2017-08-24T09:30:14.760Z,15.63
2017-08-24T09:32:41.383Z,17.67
2017-08-24T09:35:08.018Z,20.50
2017-08-24T09:37:34.634Z,19.77
2017-08-24T09:40:01.281Z,18.50
2017-08-24T09:42:27.923Z,18.63
2017-08-24T09:44:54.586Z,20.10
2017-08-24T09:47:21.230Z,17.73
2017-08-24T09:49:47.867Z,13.43
2017-08-24T09:52:14.491Z,12.47
2017-08-24T09:54:41.140Z,14.13
2017-08-24T09:57:07.786Z,14.93
2017-08-24T09:59:34.423Z,15.83
2017-08-24T10:02:01.051Z,13.97
2017-08-24T10:04:27.679Z,11.67
2017-08-24T10:06:54.329Z,15.57
2017-08-24T10:09:20.969Z,13.70
2017-08-24T10:11:47.637Z,13.70
2017-08-24T10:14:14.259Z,13.40
2017-08-24T10:16:40.895Z,13.40
2017-08-24T10:19:07.509Z,15.57
2017-08-24T10:21:34.172Z,16.00
2017-08-24T10:24:00.812Z,11.10
2017-08-24T10:26:27.422Z,25.17
2017-08-24T10:28:54.099Z,13.90
2017-08-24T10:31:20.698Z,11.23
2017-08-24T10:33:47.326Z,11.17
2017-08-24T10:36:13.935Z,11.30
2017-08-24T10:38:40.574Z,20.37
2017-08-24T10:41:07.194Z,15.40
2017-08-24T10:43:33.831Z,14.67
2017-08-24T10:46:00.478Z,20.43
2017-08-24T10:48:27.095Z,8.10
2017-08-24T10:50:53.727Z,13.63
2017-08-24T10:53:20.371Z,16.03
2017-08-24T10:55:47.012Z,9.53
2017-08-24T10:58:13.647Z,12.50
2017-08-24T11:00:40.259Z,10.63
2017-08-24T11:03:06.909Z,12.13
2017-08-24T11:05:33.569Z,16.40
2017-08-24T11:08:00.175Z,12.80
2017-08-24T11:10:26.799Z,10.83
2017-08-24T11:12:53.450Z,16.90
2017-08-24T11:15:20.092Z,11.50
2017-08-24T11:17:46.694Z,10.40
2017-08-24T11:20:13.314Z,12.67
2017-08-24T11:22:39.940Z,15.07
2017-08-24T11:25:06.586Z,12.80
2017-08-24T11:27:33.218Z,13.53
2017-08-24T11:29:59.823Z,9.60
2017-08-24T11:32:26.471Z,12.10
2017-08-24T11:34:53.087Z,9.60
2017-08-24T11:37:19.734Z,8.83
2017-08-24T11:39:46.344Z,11.53
2017-08-24T11:42:12.960Z,16.77
2017-08-24T11:44:39.610Z,10.17
2017-08-24T11:47:06.269Z,12.07
2017-08-24T11:49:32.890Z,15.33
2017-08-24T11:51:59.498Z,11.73
2017-08-24T11:54:26.146Z,16.13
2017-08-24T11:56:52.787Z,11.80
2017-08-24T11:59:19.389Z,10.30
2017-08-24T12:01:46.011Z,16.27
2017-08-24T12:04:12.679Z,12.87
2017-08-24T12:06:39.302Z,13.00
2017-08-24T12:09:05.950Z,10.13
2017-08-24T12:11:32.571Z,10.17
2017-08-24T12:13:59.184Z,6.67
2017-08-24T12:16:25.839Z,11.00
2017-08-24T12:18:52.473Z,10.97
2017-08-24T12:21:19.095Z,7.40
2017-08-24T12:23:45.723Z,10.50
2017-08-24T12:26:12.327Z,7.10
2017-08-24T12:28:38.959Z,9.67
2017-08-24T12:31:05.575Z,9.90
2017-08-24T12:33:32.211Z,8.03
2017-08-24T12:35:58.825Z,6.80
2017-08-24T12:38:25.449Z,7.10
2017-08-24T12:40:52.103Z,8.30
2017-08-24T12:43:18.721Z,10.60
2017-08-24T12:45:45.338Z,8.37
2017-08-24T12:48:11.960Z,6.97
2017-08-24T12:50:38.623Z,12.00
2017-08-24T12:53:05.235Z,7.73
2017-08-24T12:55:31.849Z,9.30
2017-08-24T12:57:58.499Z,12.70
2017-08-24T13:00:25.123Z,13.00
2017-08-24T13:02:51.766Z,12.73
2017-08-24T13:05:18.392Z,8.33
2017-08-24T13:07:45.012Z,8.90
2017-08-24T13:10:11.649Z,11.93
2017-08-24T13:12:38.254Z,12.53
2017-08-24T13:15:04.917Z,9.57
2017-08-24T13:17:31.526Z,6.50
2017-08-24T13:19:58.156Z,5.93
2017-08-24T13:22:24.802Z,9.70
2017-08-24T13:24:51.466Z,7.77
2017-08-24T13:27:18.106Z,8.03
2017-08-24T13:29:44.706Z,8.00
2017-08-24T13:32:11.342Z,6.90
2017-08-24T13:34:37.968Z,8.17
2017-08-24T13:37:04.598Z,8.60
2017-08-24T13:39:31.242Z,4.87
2017-08-24T13:41:57.859Z,7.93
2017-08-24T13:44:24.502Z,5.30
2017-08-24T13:46:51.127Z,10.53
2017-08-24T13:49:17.765Z,11.10
2017-08-24T13:51:44.396Z,5.33
2017-08-24T13:54:11.032Z,6.07
2017-08-24T13:56:37.661Z,7.90
2017-08-24T13:59:04.286Z,6.73
2017-08-24T14:01:30.894Z,5.17
2017-08-24T14:03:57.523Z,9.27
2017-08-24T14:06:24.135Z,9.60
2017-08-24T14:08:50.782Z,5.30
2017-08-24T14:11:17.399Z,7.30
2017-08-24T14:13:44.025Z,8.50
2017-08-24T14:16:10.680Z,13.20
2017-08-24T14:18:37.294Z,18.50
2017-08-24T14:21:03.935Z,9.17
2017-08-24T14:23:30.550Z,9.90
2017-08-24T14:25:57.175Z,8.37
2017-08-24T14:28:23.816Z,4.33
2017-08-24T14:30:50.434Z,9.63
2017-08-24T14:33:17.050Z,6.97
2017-08-24T14:35:43.687Z,6.30
2017-08-24T14:38:10.319Z,4.80
2017-08-24T14:40:36.960Z,6.20
2017-08-24T14:43:03.595Z,9.53
2017-08-24T14:45:30.222Z,6.90
2017-08-24T14:47:56.851Z,4.17
2017-08-24T14:50:23.498Z,8.30
2017-08-24T14:52:50.106Z,6.57
2017-08-24T14:55:16.760Z,6.40
2017-08-24T14:57:43.397Z,5.63
2017-08-24T15:00:09.995Z,5.60
2017-08-24T15:02:36.636Z,7.13
2017-08-24T15:05:03.259Z,4.90
2017-08-24T15:07:29.854Z,8.77
2017-08-24T15:09:56.512Z,5.80
2017-08-24T15:12:23.145Z,8.50
2017-08-24T15:14:49.779Z,12.37
2017-08-24T15:17:16.374Z,6.00
2017-08-24T15:19:43.021Z,6.13
2017-08-24T15:22:09.651Z,10.23
2017-08-24T15:24:36.278Z,16.20
2017-08-24T15:27:02.927Z,5.17
2017-08-24T15:29:29.602Z,5.10
2017-08-24T15:31:56.251Z,6.83
2017-08-24T15:34:22.894Z,7.20
2017-08-24T15:36:49.520Z,6.10
2017-08-24T15:39:16.186Z,7.40
2017-08-24T15:41:42.798Z,8.07
2017-08-24T15:44:09.417Z,5.50
2017-08-24T15:46:36.059Z,5.43
2017-08-24T15:49:02.666Z,7.73
2017-08-24T15:51:29.312Z,11.10
2017-08-24T15:53:55.942Z,4.70
2017-08-24T15:56:22.591Z,4.83
2017-08-24T15:58:49.247Z,7.30
2017-08-24T16:01:15.874Z,10.33
2017-08-24T16:03:42.540Z,6.63
2017-08-24T16:06:09.167Z,6.37
2017-08-24T16:08:35.806Z,6.20
2017-08-24T16:11:02.435Z,8.67
2017-08-24T16:13:29.066Z,5.57
2017-08-24T16:15:55.727Z,9.40
2017-08-24T16:18:22.345Z,9.67
2017-08-24T16:20:50.598Z,7.73
2017-08-24T16:23:17.223Z,7.30
2017-08-24T16:25:43.847Z,6.03
2017-08-24T16:28:10.460Z,6.13
2017-08-24T16:30:37.076Z,8.77
2017-08-24T16:33:03.722Z,5.00
2017-08-24T16:35:30.335Z,5.70
2017-08-24T16:37:56.955Z,5.40
2017-08-24T16:40:23.583Z,5.10
2017-08-24T16:42:50.206Z,6.53
2017-08-24T16:45:16.853Z,9.23
2017-08-24T16:47:43.490Z,6.67
2017-08-24T16:50:10.109Z,4.43
2017-08-24T16:52:36.755Z,9.70
2017-08-24T16:55:03.523Z,5.77
2017-08-24T16:57:30.171Z,11.00
2017-08-24T16:59:56.799Z,4.10
2017-08-24T17:02:23.403Z,5.97
2017-08-24T17:04:50.052Z,5.43
2017-08-24T17:07:16.687Z,10.00
2017-08-24T17:09:43.321Z,10.63
2017-08-24T17:12:10.017Z,12.53
2017-08-24T17:14:36.689Z,10.57
2017-08-24T17:17:03.257Z,5.67
2017-08-24T17:19:29.871Z,9.43
2017-08-24T17:21:56.525Z,6.83
2017-08-24T17:24:23.152Z,7.60
2017-08-24T17:26:49.785Z,9.73
2017-08-24T17:29:16.410Z,8.93
2017-08-24T17:31:43.045Z,9.10
2017-08-24T17:34:09.674Z,5.63
2017-08-24T17:36:36.314Z,4.10
2017-08-24T17:39:02.987Z,4.70
2017-08-24T17:41:29.616Z,7.07
2017-08-24T17:43:56.234Z,13.13
2017-08-24T17:46:22.859Z,7.00
2017-08-24T17:48:49.466Z,6.13
2017-08-24T17:51:16.127Z,6.50
2017-08-24T17:53:42.732Z,9.80
2017-08-24T17:56:09.357Z,4.27
2017-08-24T17:58:36.012Z,8.27
2017-08-24T18:01:03.530Z,7.90
2017-08-24T18:03:30.154Z,3.63
2017-08-24T18:05:56.763Z,10.60
2017-08-24T18:08:23.389Z,6.77
2017-08-24T18:10:49.996Z,6.97
2017-08-24T18:13:16.619Z,6.77
2017-08-24T18:15:43.266Z,12.40
2017-08-24T18:18:09.895Z,9.20
2017-08-24T18:20:36.526Z,7.43
2017-08-24T18:23:03.130Z,7.43
2017-08-24T18:25:29.850Z,6.90
2017-08-24T18:27:56.500Z,6.37
2017-08-24T18:30:23.112Z,8.03
2017-08-24T18:32:49.730Z,6.77
2017-08-24T18:35:16.364Z,11.00
2017-08-24T18:37:42.987Z,7.87
2017-08-24T18:40:09.619Z,6.70
2017-08-24T18:42:36.242Z,10.23
2017-08-24T18:45:02.889Z,7.67
2017-08-24T18:47:29.495Z,4.93
2017-08-24T18:49:56.164Z,6.60
2017-08-24T18:52:22.786Z,6.87
2017-08-24T18:54:49.427Z,11.63
2017-08-24T18:57:16.095Z,6.40
2017-08-24T18:59:42.704Z,5.73
2017-08-24T19:02:09.330Z,5.53
2017-08-24T19:04:35.951Z,7.57
2017-08-24T19:07:02.594Z,7.60
2017-08-24T19:09:29.242Z,5.07
2017-08-24T19:11:55.854Z,8.97
2017-08-24T19:14:22.492Z,7.43
2017-08-24T19:16:49.108Z,9.57
2017-08-24T19:19:15.716Z,7.60
2017-08-24T19:21:42.470Z,7.50
2017-08-24T19:24:09.095Z,10.20
2017-08-24T19:26:35.719Z,7.80
2017-08-24T19:29:02.373Z,8.83
2017-08-24T19:31:29.023Z,15.13
2017-08-24T19:33:55.660Z,8.47
2017-08-24T19:36:22.308Z,11.30
2017-08-24T19:38:48.944Z,5.30
2017-08-24T19:41:15.556Z,8.53
2017-08-24T19:43:42.226Z,4.87
2017-08-24T19:46:08.858Z,6.83
2017-08-24T19:48:35.514Z,7.13
2017-08-24T19:51:02.146Z,7.43
2017-08-24T19:53:28.819Z,6.07
2017-08-24T19:55:55.479Z,7.03
2017-08-24T19:58:22.102Z,4.37
2017-08-24T20:00:48.740Z,12.07
2017-08-24T20:03:15.360Z,6.50
2017-08-24T20:05:42.024Z,7.17
2017-08-24T20:08:08.638Z,6.77
2017-08-24T20:10:35.292Z,7.60
2017-08-24T20:13:02.752Z,7.17
2017-08-24T20:15:29.380Z,5.10
2017-08-24T20:17:56.017Z,8.53
2017-08-24T20:20:22.628Z,16.83
2017-08-24T20:22:49.292Z,12.13
2017-08-24T20:25:15.934Z,15.03
2017-08-24T20:27:42.566Z,5.67
2017-08-24T20:30:09.210Z,5.53
2017-08-24T20:32:35.863Z,4.40
2017-08-24T20:35:02.473Z,12.67
2017-08-24T20:37:29.136Z,7.30
2017-08-24T20:39:55.759Z,4.70
2017-08-24T20:42:22.376Z,5.60
2017-08-24T20:44:49.044Z,10.50
2017-08-24T20:47:15.675Z,7.60
2017-08-24T20:49:42.378Z,10.47
2017-08-24T20:52:09.028Z,5.87
2017-08-24T20:54:35.658Z,10.33
2017-08-24T20:57:02.283Z,8.10
2017-08-24T20:59:28.909Z,5.73
2017-08-24T21:01:55.608Z,7.50
2017-08-24T21:04:22.277Z,5.63
2017-08-24T21:06:48.888Z,8.73
2017-08-24T21:09:15.507Z,7.53
2017-08-24T21:11:42.132Z,5.13
2017-08-24T21:14:08.749Z,4.10
2017-08-24T21:16:35.380Z,10.37
2017-08-24T21:19:02.010Z,6.30
2017-08-24T21:21:28.666Z,12.10
2017-08-24T21:23:55.279Z,8.50
2017-08-24T21:26:21.912Z,5.87
2017-08-24T21:28:48.535Z,4.00
2017-08-24T21:31:15.154Z,7.20
2017-08-24T21:33:41.773Z,5.07
2017-08-24T21:36:08.396Z,9.17
2017-08-24T21:38:35.043Z,7.13
2017-08-24T21:41:01.671Z,9.03
2017-08-24T21:43:28.316Z,10.30
2017-08-24T21:45:54.916Z,9.50
2017-08-24T21:48:21.559Z,6.23
2017-08-24T21:50:48.203Z,3.40
2017-08-24T21:53:14.826Z,7.20
2017-08-24T21:55:41.454Z,11.57
2017-08-24T21:58:08.088Z,3.10
2017-08-24T22:00:34.739Z,6.60
2017-08-24T22:03:01.364Z,5.93
2017-08-24T22:05:28.003Z,4.50
2017-08-24T22:07:54.625Z,5.03
2017-08-24T22:10:21.261Z,5.73
2017-08-24T22:12:47.863Z,5.40
2017-08-24T22:15:14.522Z,4.37
2017-08-24T22:17:41.131Z,3.20
2017-08-24T22:20:07.731Z,5.17
2017-08-24T22:22:34.383Z,7.60
2017-08-24T22:25:00.990Z,4.87
2017-08-24T22:27:27.620Z,4.63
2017-08-24T22:29:54.268Z,5.57
2017-08-24T22:32:20.875Z,4.90
2017-08-24T22:34:47.492Z,4.40
2017-08-24T22:37:14.126Z,7.70
2017-08-24T22:39:40.782Z,10.37
2017-08-24T22:42:07.399Z,5.47
2017-08-24T22:44:34.048Z,4.40
2017-08-24T22:47:00.667Z,6.43
2017-08-24T22:49:27.328Z,5.70
2017-08-24T22:51:53.950Z,3.90
2017-08-24T22:54:26.387Z,5.13
2017-08-24T22:56:58.842Z,7.13
2017-08-24T22:59:31.306Z,5.10
2017-08-24T23:02:03.678Z,3.40
2017-08-24T23:04:30.317Z,2.90
2017-08-24T23:06:56.917Z,5.57
2017-08-24T23:09:23.556Z,5.87
2017-08-24T23:11:50.179Z,4.00
2017-08-24T23:14:16.859Z,8.63
2017-08-24T23:16:43.484Z,3.87
2017-08-24T23:19:10.089Z,3.40
2017-08-24T23:21:36.710Z,3.70
2017-08-24T23:24:03.369Z,5.47
2017-08-24T23:26:29.988Z,14.63
2017-08-24T23:28:56.626Z,7.30
2017-08-24T23:31:23.239Z,7.53
2017-08-24T23:33:49.851Z,6.70
2017-08-24T23:36:16.490Z,9.90
2017-08-24T23:38:43.115Z,3.87
2017-08-24T23:41:09.736Z,8.50
2017-08-24T23:43:36.351Z,4.50
2017-08-24T23:46:02.980Z,6.17
2017-08-24T23:48:29.598Z,6.40
2017-08-24T23:50:56.219Z,3.80
2017-08-24T23:53:22.837Z,9.60
2017-08-24T23:55:49.438Z,3.63
2017-08-24T23:58:16.092Z,6.17
